Forrester Center, West Virginia
Current Conditions -  °F | °C
As of 7:53 PM on Tuesday 21 Oct 2014 (Local Time) from KMRB Reporting Station
Light Rain Light Rain  
Wind Chill: 53°   Ceiling: 6000
Heat Index: 53°   Visibility: 10mi
Dew Point: 47°   Wind: 6mph
Humidity: 80%   Direction: 340°NNW
Pressure: 29.91"   Gusts: NA
Location:  39.3053°N, 77.8555°W
Report Text: KMRB 212353Z 34005KT 10SM -RA BKN060 OVC110 12/08 A2991 RMK AO2 RAB20 SLP128 P0000 60004 T01170083 10172 20117 51013
Loading
Personal Weather Stations






























Interactive Weather Map New forecast layout! Learn more

10-Day Weather Forecast

Advertisements
Track Severe Weather on mobile